バンギ の空港の天気 - METARとTAF

バンギ・ムポコ国際空港 ( FEFF / BGF ) - 中央アフリカ バンギ
飛行場実況気象(Metar)
観測時間05/23 19:00 WAT (05/23 18:00 UTC)
風向・風速不定 1m/s
視程10km以上
天気現象
少しの雲 雲底高度 400m
気温28℃
湿度84%
気圧1008hPa
METARFEFF 231800Z VRB02KT 9999 FEW013 28/25 Q1008 NOSIG
過去の天気等 Google飛行場航空写真 Wunderground天気予報

過去48時間のMETAR

飛行場予報(TAF)
発表時間: 5/23 12:00 WAT (5/23 11:00 UTC)
予報対象時間: 23日13時 WAT ~ 24日19時 WAT
風向・風速西 3m/s
視程10km以上
少しの雲 雲底高度 610m
少しの積乱雲 雲底高度 1010m
23日16時 WAT ~ 23日22時 WAT に一時的に
風向・風速不定 8m/s
天気現象雷雨
24日5時 WAT から 確率 30% で
視程800m
天気現象
全天の8割程度の雲 雲底高度 120m
TAF COR FEFF 231100Z 2312/2418 26005KT 9999 FEW020 FEW033CB
TEMPO 2315/2321 VRB15KT TSRA
PROB30 2404/2407 0800 FG BKN004